createdAt,value
2023-01-13T00:00:09.444Z,0.70
2023-01-13T00:02:36.077Z,0.50
2023-01-13T00:05:03.952Z,0.68
2023-01-13T00:07:30.598Z,0.77
2023-01-13T00:09:57.200Z,0.80
2023-01-13T00:12:23.756Z,0.52
2023-01-13T00:14:50.332Z,0.50
2023-01-13T00:17:17.015Z,0.50
2023-01-13T00:19:44.698Z,0.50
2023-01-13T00:22:11.271Z,0.40
2023-01-13T00:24:37.978Z,0.50
2023-01-13T00:27:04.601Z,0.30
2023-01-13T00:29:31.308Z,0.65
2023-01-13T00:31:58.493Z,0.25
2023-01-13T00:34:25.072Z,0.30
2023-01-13T00:36:51.754Z,0.70
2023-01-13T00:39:18.378Z,0.52
2023-01-13T00:42:03.574Z,0.28
2023-01-13T00:44:30.132Z,0.40
2023-01-13T00:46:56.705Z,0.30
2023-01-13T00:49:23.287Z,0.40
2023-01-13T00:51:49.844Z,0.40
2023-01-13T00:54:16.449Z,0.43
2023-01-13T00:56:43.009Z,0.40
2023-01-13T00:59:13.817Z,0.28
2023-01-13T01:01:41.337Z,0.20
2023-01-13T01:04:08.141Z,0.30
2023-01-13T01:06:34.763Z,0.30
2023-01-13T01:09:01.401Z,0.28
2023-01-13T01:11:30.449Z,0.30
2023-01-13T01:13:58.720Z,0.38
2023-01-13T01:16:27.321Z,0.55
2023-01-13T01:18:55.053Z,0.35
2023-01-13T01:21:23.522Z,0.50
2023-01-13T01:23:50.073Z,0.47
2023-01-13T01:26:19.887Z,0.35
2023-01-13T01:28:46.834Z,0.45
2023-01-13T01:31:18.048Z,0.60
2023-01-13T01:33:47.440Z,0.50
2023-01-13T01:36:16.183Z,0.35
2023-01-13T01:38:43.784Z,0.63
2023-01-13T01:41:15.584Z,0.60
2023-01-13T01:43:59.391Z,0.60
2023-01-13T01:46:44.754Z,0.40
2023-01-13T01:49:22.366Z,0.40
2023-01-13T01:51:51.168Z,0.38
2023-01-13T01:54:26.229Z,0.55
2023-01-13T01:56:53.204Z,0.52
2023-01-13T01:59:20.315Z,0.57
2023-01-13T02:01:48.660Z,0.52
2023-01-13T02:04:28.067Z,0.50
2023-01-13T02:06:56.830Z,0.50
2023-01-13T02:09:26.220Z,0.75
2023-01-13T02:12:11.107Z,0.30
2023-01-13T02:14:39.009Z,0.35
2023-01-13T02:17:05.515Z,0.43
2023-01-13T02:19:38.197Z,0.30
2023-01-13T02:22:16.200Z,0.30
2023-01-13T02:25:07.617Z,0.32
2023-01-13T02:27:52.189Z,0.40
2023-01-13T02:30:56.128Z,0.45
2023-01-13T02:33:46.384Z,0.40
2023-01-13T02:36:20.040Z,0.30
2023-01-13T02:38:51.488Z,0.30
2023-01-13T02:41:46.634Z,0.40
2023-01-13T02:44:19.181Z,0.20
2023-01-13T02:46:49.602Z,0.30
2023-01-13T02:49:24.992Z,0.32
2023-01-13T02:51:55.321Z,0.40
2023-01-13T02:54:25.744Z,0.30
2023-01-13T02:56:55.492Z,0.50
2023-01-13T02:59:26.227Z,0.30
2023-01-13T03:01:56.353Z,0.30
2023-01-13T03:04:55.832Z,0.38
2023-01-13T03:07:48.046Z,0.30
2023-01-13T03:10:39.403Z,0.30
2023-01-13T03:13:34.788Z,0.32
2023-01-13T03:16:30.672Z,0.30
2023-01-13T03:19:18.887Z,0.32
2023-01-13T03:21:56.798Z,0.30
2023-01-13T03:25:00.271Z,0.30
2023-01-13T03:27:30.894Z,0.20
2023-01-13T03:30:03.136Z,0.25
2023-01-13T03:32:49.527Z,0.40
2023-01-13T03:35:25.963Z,0.30
2023-01-13T03:38:05.851Z,0.20
2023-01-13T03:40:37.066Z,0.30
2023-01-13T03:43:28.257Z,0.50
2023-01-13T03:45:59.213Z,0.40
2023-01-13T03:48:27.819Z,0.30
2023-01-13T03:50:57.584Z,0.40
2023-01-13T03:53:40.237Z,0.50
2023-01-13T03:56:21.335Z,0.30
2023-01-13T03:58:51.111Z,0.32
2023-01-13T04:01:29.903Z,0.20
2023-01-13T04:04:09.534Z,0.40
2023-01-13T04:06:55.705Z,0.50
2023-01-13T04:09:40.826Z,0.35
2023-01-13T04:12:22.454Z,0.65
2023-01-13T04:14:49.975Z,0.32
2023-01-13T04:17:16.960Z,0.45
2023-01-13T04:19:43.555Z,0.57
2023-01-13T04:22:10.247Z,0.50
2023-01-13T04:24:37.256Z,0.55
2023-01-13T04:27:04.396Z,0.47
2023-01-13T04:29:30.932Z,0.60
2023-01-13T04:31:57.540Z,0.50
2023-01-13T04:34:24.159Z,0.90
2023-01-13T04:36:50.872Z,0.60
2023-01-13T04:39:18.079Z,0.50
2023-01-13T04:41:59.573Z,0.52
2023-01-13T04:44:27.174Z,0.60
2023-01-13T04:46:54.391Z,0.60
2023-01-13T04:49:21.328Z,0.60
2023-01-13T04:51:47.931Z,0.88
2023-01-13T04:54:14.631Z,0.80
2023-01-13T04:56:41.251Z,0.77
2023-01-13T04:59:09.791Z,0.40
2023-01-13T05:01:36.937Z,0.70
2023-01-13T05:04:03.630Z,0.63
2023-01-13T05:06:30.485Z,0.65
2023-01-13T05:08:57.372Z,0.52
2023-01-13T05:11:42.571Z,0.80
2023-01-13T05:14:28.508Z,0.80
2023-01-13T05:17:02.525Z,0.70
2023-01-13T05:19:29.089Z,1.25
2023-01-13T05:22:14.936Z,0.82
2023-01-13T05:25:00.498Z,0.75
2023-01-13T05:27:27.399Z,0.57
2023-01-13T05:29:55.051Z,0.90
2023-01-13T05:32:22.185Z,1.20
2023-01-13T05:34:49.561Z,1.02
2023-01-13T05:37:16.489Z,0.95
2023-01-13T05:40:02.125Z,0.75
2023-01-13T05:42:47.445Z,0.80
2023-01-13T05:45:14.112Z,0.98
2023-01-13T05:47:40.725Z,0.70
2023-01-13T05:50:08.293Z,0.85
2023-01-13T05:52:35.187Z,0.82
2023-01-13T05:55:01.868Z,0.73
2023-01-13T05:57:28.500Z,0.70
2023-01-13T05:59:55.039Z,0.98
2023-01-13T06:02:21.616Z,0.50
2023-01-13T06:04:48.407Z,0.85
2023-01-13T06:07:14.951Z,0.80
2023-01-13T06:09:41.495Z,1.10
2023-01-13T06:12:13.063Z,1.20
2023-01-13T06:14:42.677Z,1.10
2023-01-13T06:17:11.784Z,0.80
2023-01-13T06:19:39.104Z,1.42
2023-01-13T06:22:13.743Z,1.23
2023-01-13T06:24:40.429Z,1.17
2023-01-13T06:27:09.138Z,1.40
2023-01-13T06:29:35.894Z,1.40
2023-01-13T06:32:06.992Z,1.40
2023-01-13T06:34:35.564Z,1.30
2023-01-13T06:37:03.811Z,1.23
2023-01-13T06:39:31.734Z,1.52
2023-01-13T06:42:17.484Z,1.52
2023-01-13T06:44:45.541Z,2.05
2023-01-13T06:47:12.069Z,1.60
2023-01-13T06:49:38.626Z,1.60
2023-01-13T06:52:05.449Z,1.27
2023-01-13T06:54:32.216Z,2.13
2023-01-13T06:56:58.785Z,1.30
2023-01-13T06:59:25.862Z,2.13
2023-01-13T07:01:52.780Z,1.90
2023-01-13T07:04:19.521Z,1.90
2023-01-13T07:06:46.072Z,1.55
2023-01-13T07:09:12.846Z,2.25
2023-01-13T07:11:39.601Z,1.35
2023-01-13T07:14:24.836Z,2.05
2023-01-13T07:16:52.410Z,1.70
2023-01-13T07:19:23.711Z,1.80
2023-01-13T07:21:53.534Z,2.70
2023-01-13T07:24:20.411Z,2.00
2023-01-13T07:26:47.014Z,1.90
2023-01-13T07:29:13.759Z,2.10
2023-01-13T07:31:40.450Z,1.83
2023-01-13T07:34:07.408Z,2.30
2023-01-13T07:36:34.423Z,2.00
2023-01-13T07:39:01.231Z,1.90
2023-01-13T07:41:46.725Z,2.05
2023-01-13T07:44:13.376Z,2.00
2023-01-13T07:46:40.034Z,2.20
2023-01-13T07:49:07.276Z,2.08
2023-01-13T07:51:39.566Z,2.58
2023-01-13T07:54:06.889Z,2.10
2023-01-13T07:56:33.716Z,1.63
2023-01-13T07:59:01.063Z,2.50
2023-01-13T08:01:28.668Z,2.25
2023-01-13T08:03:56.369Z,2.47
2023-01-13T08:06:23.294Z,2.20
2023-01-13T08:08:50.645Z,2.15
2023-01-13T08:11:18.288Z,2.22
2023-01-13T08:13:45.211Z,2.63
2023-01-13T08:16:14.129Z,2.17
2023-01-13T08:18:41.512Z,2.03
2023-01-13T08:21:11.190Z,2.47
2023-01-13T08:23:41.120Z,2.73
2023-01-13T08:26:11.182Z,2.38
2023-01-13T08:28:40.501Z,2.40
2023-01-13T08:31:10.168Z,2.90
2023-01-13T08:33:37.658Z,1.92
2023-01-13T08:36:08.936Z,2.67
2023-01-13T08:38:36.620Z,2.88
2023-01-13T08:41:14.825Z,1.90
2023-01-13T08:43:41.534Z,2.85
2023-01-13T08:46:08.262Z,2.33
2023-01-13T08:48:35.634Z,2.15
2023-01-13T08:51:04.184Z,3.15
2023-01-13T08:53:30.982Z,2.10
2023-01-13T08:55:57.809Z,2.72
2023-01-13T08:58:24.467Z,2.17
2023-01-13T09:00:51.086Z,2.00
2023-01-13T09:03:17.818Z,2.72
2023-01-13T09:05:44.432Z,2.47
2023-01-13T09:08:10.991Z,1.70
2023-01-13T09:10:37.629Z,2.08
2023-01-13T09:13:13.413Z,2.10
2023-01-13T09:15:41.987Z,2.13
2023-01-13T09:18:09.017Z,2.22
2023-01-13T09:20:35.873Z,2.42
2023-01-13T09:23:02.739Z,2.25
2023-01-13T09:25:29.308Z,2.30
2023-01-13T09:27:56.899Z,2.88
2023-01-13T09:30:24.379Z,2.13
2023-01-13T09:33:10.871Z,2.03
2023-01-13T09:35:37.577Z,2.20
2023-01-13T09:38:04.241Z,2.28
2023-01-13T09:40:30.815Z,2.60
2023-01-13T09:43:24.943Z,2.72
2023-01-13T09:46:00.455Z,2.85
2023-01-13T09:48:32.503Z,2.65
2023-01-13T09:53:56.959Z,2.13
2023-01-13T09:56:25.944Z,2.97
2023-01-13T09:58:52.930Z,3.03
2023-01-13T10:01:32.492Z,2.72
2023-01-13T10:04:13.099Z,2.60
2023-01-13T10:06:42.958Z,2.83
2023-01-13T10:09:55.010Z,3.00
2023-01-13T10:12:45.508Z,2.60
2023-01-13T10:15:17.972Z,3.25
2023-01-13T10:17:51.043Z,2.63
2023-01-13T10:20:24.783Z,3.03
2023-01-13T10:22:54.514Z,2.47
2023-01-13T10:25:32.907Z,2.70
2023-01-13T10:28:09.111Z,2.75
2023-01-13T10:30:40.155Z,2.35
2023-01-13T10:33:17.439Z,2.92
2023-01-13T10:36:01.067Z,2.92
2023-01-13T10:38:31.081Z,2.50
2023-01-13T10:41:03.854Z,2.58
2023-01-13T10:43:31.433Z,3.17
2023-01-13T10:46:07.282Z,3.00
2023-01-13T10:48:36.126Z,2.70
2023-01-13T10:51:30.495Z,2.28
2023-01-13T10:54:01.698Z,2.47
2023-01-13T10:56:33.679Z,2.53
2023-01-13T11:02:19.855Z,2.25
2023-01-13T11:04:53.964Z,3.00
2023-01-13T11:07:32.012Z,2.97
2023-01-13T11:10:19.843Z,2.50
2023-01-13T11:13:05.440Z,2.42
2023-01-13T11:15:43.655Z,2.97
2023-01-13T11:18:19.310Z,3.13
2023-01-13T11:20:49.053Z,3.03
2023-01-13T11:23:27.490Z,2.78
2023-01-13T11:26:01.780Z,3.38
2023-01-13T11:28:49.515Z,2.67
2023-01-13T11:31:27.112Z,2.20
2023-01-13T11:34:00.734Z,2.33
2023-01-13T11:36:49.448Z,2.85
2023-01-13T11:39:41.940Z,2.42
2023-01-13T11:42:22.766Z,2.70
2023-01-13T11:44:58.733Z,3.50
2023-01-13T11:47:27.021Z,2.78
2023-01-13T11:49:54.241Z,2.30
2023-01-13T11:52:29.757Z,2.67
2023-01-13T11:55:41.313Z,2.85
2023-01-13T11:58:45.585Z,2.65
2023-01-13T12:01:52.182Z,1.83
2023-01-13T12:04:29.844Z,2.60
2023-01-13T12:07:19.518Z,2.88
2023-01-13T12:10:00.644Z,2.20
2023-01-13T12:12:27.873Z,3.00
2023-01-13T12:15:12.833Z,3.25
2023-01-13T12:18:01.859Z,2.83
2023-01-13T12:20:45.733Z,2.63
2023-01-13T12:23:30.992Z,2.85
2023-01-13T12:26:11.683Z,2.72
2023-01-13T12:28:47.080Z,3.13
2023-01-13T12:31:14.769Z,2.67
2023-01-13T12:33:59.491Z,3.05
2023-01-13T12:36:56.384Z,2.45
2023-01-13T12:39:50.823Z,2.30
2023-01-13T12:42:51.300Z,3.10
2023-01-13T12:45:24.541Z,2.53
2023-01-13T12:47:51.639Z,2.70
2023-01-13T12:50:27.254Z,2.33
2023-01-13T12:52:56.162Z,3.22
2023-01-13T12:55:33.306Z,2.13
2023-01-13T12:57:59.869Z,2.97
2023-01-13T13:00:38.306Z,2.90
2023-01-13T13:03:10.896Z,2.67
2023-01-13T13:06:04.099Z,2.70
2023-01-13T13:08:42.684Z,2.70
2023-01-13T13:11:38.246Z,3.25
2023-01-13T13:14:13.495Z,2.50
2023-01-13T13:16:51.650Z,2.80
2023-01-13T13:19:18.240Z,3.35
2023-01-13T13:22:07.553Z,2.42
2023-01-13T13:24:34.163Z,3.58
2023-01-13T13:27:19.775Z,2.50
2023-01-13T13:29:58.520Z,2.60
2023-01-13T13:32:54.386Z,3.22
2023-01-13T13:35:58.510Z,3.33
2023-01-13T13:39:01.980Z,2.45
2023-01-13T13:41:48.510Z,2.33
2023-01-13T13:44:50.434Z,2.70
2023-01-13T13:47:17.612Z,3.30
2023-01-13T13:49:52.728Z,2.88
2023-01-13T13:53:01.416Z,3.63
2023-01-13T13:55:29.790Z,3.45
2023-01-13T13:57:58.776Z,2.70
2023-01-13T14:00:29.240Z,2.63
2023-01-13T14:03:01.927Z,2.40
2023-01-13T14:05:33.795Z,3.20
2023-01-13T14:08:00.496Z,2.63
2023-01-13T14:10:34.293Z,3.55
2023-01-13T14:13:12.631Z,3.53
2023-01-13T14:15:41.167Z,2.17
2023-01-13T14:18:41.241Z,2.47
2023-01-13T14:21:19.887Z,2.72
2023-01-13T14:23:52.113Z,2.58
2023-01-13T14:26:23.098Z,2.80
2023-01-13T14:28:49.860Z,2.53
2023-01-13T14:31:16.951Z,2.33
2023-01-13T14:33:48.978Z,2.15
2023-01-13T14:36:21.478Z,2.22
2023-01-13T14:39:12.010Z,2.08
2023-01-13T14:41:47.605Z,1.83
2023-01-13T14:44:32.667Z,1.70
2023-01-13T14:47:03.037Z,2.38
2023-01-13T14:49:42.516Z,2.33
2023-01-13T14:52:14.919Z,2.05
2023-01-13T14:54:41.463Z,2.50
2023-01-13T14:57:29.075Z,2.28
2023-01-13T15:00:00.682Z,2.90
2023-01-13T15:02:30.341Z,2.50
2023-01-13T15:04:59.315Z,2.75
2023-01-13T15:07:29.538Z,2.67
2023-01-13T15:10:00.216Z,2.30
2023-01-13T15:12:39.524Z,2.40
2023-01-13T15:15:19.721Z,3.03
2023-01-13T15:17:46.919Z,3.30
2023-01-13T15:20:14.654Z,2.78
2023-01-13T15:22:41.316Z,3.08
2023-01-13T15:25:09.617Z,2.45
2023-01-13T15:27:37.530Z,2.58
2023-01-13T15:30:13.182Z,2.45
2023-01-13T15:32:39.871Z,2.83
2023-01-13T15:35:07.015Z,2.85
2023-01-13T15:37:33.600Z,2.20
2023-01-13T15:40:00.381Z,2.83
2023-01-13T15:42:45.392Z,2.67
2023-01-13T15:45:31.821Z,3.15
2023-01-13T15:47:59.677Z,2.60
2023-01-13T15:50:26.994Z,2.45
2023-01-13T15:52:53.561Z,2.90
2023-01-13T15:55:20.178Z,2.67
2023-01-13T15:57:50.427Z,2.63
2023-01-13T16:00:20.426Z,2.75
2023-01-13T16:02:47.555Z,2.58
2023-01-13T16:05:14.220Z,3.20
2023-01-13T16:07:41.209Z,2.97
2023-01-13T16:10:18.108Z,2.92
2023-01-13T16:12:44.714Z,2.65
2023-01-13T16:15:18.446Z,2.70
2023-01-13T16:17:46.247Z,2.70
2023-01-13T16:20:17.641Z,2.97
2023-01-13T16:22:45.404Z,2.53
2023-01-13T16:25:24.591Z,2.60
2023-01-13T16:27:51.631Z,2.45
2023-01-13T16:30:34.938Z,2.67
2023-01-13T16:33:02.667Z,2.10
2023-01-13T16:35:32.011Z,2.78
2023-01-13T16:37:59.798Z,1.88
2023-01-13T16:40:31.388Z,1.80
2023-01-13T16:42:58.342Z,2.30
2023-01-13T16:45:25.384Z,2.70
2023-01-13T16:47:52.390Z,2.25
2023-01-13T16:50:35.389Z,2.42
2023-01-13T16:53:03.359Z,2.80
2023-01-13T16:55:30.257Z,2.38
2023-01-13T16:57:56.969Z,1.90
2023-01-13T17:00:23.791Z,1.98
2023-01-13T17:02:50.682Z,2.22
2023-01-13T17:05:17.345Z,2.10
2023-01-13T17:07:47.565Z,1.95
2023-01-13T17:10:20.307Z,2.53
2023-01-13T17:12:47.020Z,2.60
2023-01-13T17:15:15.724Z,1.92
2023-01-13T17:17:43.578Z,2.53
2023-01-13T17:20:12.725Z,2.10
2023-01-13T17:22:39.595Z,2.63
2023-01-13T17:25:06.809Z,2.22
2023-01-13T17:27:33.831Z,3.05
2023-01-13T17:30:00.435Z,2.45
2023-01-13T17:32:27.111Z,3.13
2023-01-13T17:34:53.997Z,2.40
2023-01-13T17:37:20.605Z,2.42
2023-01-13T17:39:48.704Z,3.40
2023-01-13T17:42:16.106Z,2.28
2023-01-13T17:44:42.806Z,2.63
2023-01-13T17:47:09.575Z,2.90
2023-01-13T17:49:36.100Z,2.90
2023-01-13T17:52:02.693Z,3.03
2023-01-13T17:54:29.291Z,2.72
2023-01-13T17:56:56.600Z,3.30
2023-01-13T17:59:24.367Z,2.70
2023-01-13T18:01:52.013Z,2.92
2023-01-13T18:04:21.309Z,2.80
2023-01-13T18:06:48.691Z,2.60
2023-01-13T18:09:16.338Z,2.83
2023-01-13T18:11:43.477Z,2.78
2023-01-13T18:14:10.741Z,2.85
2023-01-13T18:16:37.871Z,2.72
2023-01-13T18:19:22.937Z,3.38
2023-01-13T18:22:08.599Z,3.17
2023-01-13T18:24:54.126Z,2.50
2023-01-13T18:27:31.245Z,2.75
2023-01-13T18:30:00.148Z,3.08
2023-01-13T18:32:32.831Z,2.83
2023-01-13T18:35:05.683Z,3.00
2023-01-13T18:37:35.774Z,2.40
2023-01-13T18:40:02.965Z,2.50
2023-01-13T18:42:48.100Z,3.33
2023-01-13T18:45:14.663Z,2.72
2023-01-13T18:47:42.308Z,2.60
2023-01-13T18:50:12.261Z,3.50
2023-01-13T18:52:38.955Z,3.13
2023-01-13T18:55:05.847Z,2.80
2023-01-13T18:57:32.452Z,2.88
2023-01-13T18:59:59.048Z,3.28
2023-01-13T19:02:27.768Z,2.90
2023-01-13T19:04:54.494Z,2.60
2023-01-13T19:07:28.356Z,3.65
2023-01-13T19:09:55.772Z,3.40
2023-01-13T19:12:31.082Z,3.40
2023-01-13T19:14:58.886Z,2.72
2023-01-13T19:17:27.454Z,3.40
2023-01-13T19:19:55.916Z,3.13
2023-01-13T19:22:32.764Z,2.95
2023-01-13T19:25:00.844Z,3.53
2023-01-13T19:27:28.417Z,2.78
2023-01-13T19:29:58.635Z,3.47
2023-01-13T19:32:26.014Z,2.95
2023-01-13T19:34:55.044Z,2.85
2023-01-13T19:37:21.868Z,3.22
2023-01-13T19:39:48.542Z,3.65
2023-01-13T19:42:33.796Z,3.10
2023-01-13T19:45:18.945Z,3.00
2023-01-13T19:47:46.050Z,3.90
2023-01-13T19:50:13.989Z,3.05
2023-01-13T19:52:42.352Z,3.83
2023-01-13T19:55:09.903Z,3.65
2023-01-13T19:57:37.843Z,3.30
2023-01-13T20:00:07.105Z,2.95
2023-01-13T20:02:34.897Z,3.67
2023-01-13T20:05:05.773Z,3.40
2023-01-13T20:07:35.050Z,3.25
2023-01-13T20:10:01.897Z,3.50
2023-01-13T20:12:29.925Z,2.92
2023-01-13T20:14:56.924Z,3.15
2023-01-13T20:17:25.565Z,3.20
2023-01-13T20:19:52.482Z,3.35
2023-01-13T20:22:19.126Z,2.95
2023-01-13T20:24:45.766Z,3.53
2023-01-13T20:27:12.350Z,3.40
2023-01-13T20:29:39.024Z,3.20
2023-01-13T20:32:05.728Z,3.65
2023-01-13T20:34:32.279Z,3.53
2023-01-13T20:36:58.865Z,3.63
2023-01-13T20:39:29.102Z,3.65
2023-01-13T20:42:14.843Z,3.55
2023-01-13T20:44:41.866Z,3.00
2023-01-13T20:47:08.494Z,3.90
2023-01-13T20:49:36.977Z,3.10
2023-01-13T20:52:09.367Z,2.92
2023-01-13T20:54:40.538Z,2.97
2023-01-13T20:57:09.983Z,3.43
2023-01-13T20:59:40.080Z,3.33
2023-01-13T21:02:13.218Z,3.40
2023-01-13T21:04:40.148Z,3.22
2023-01-13T21:07:06.768Z,3.30
2023-01-13T21:09:33.376Z,3.53
2023-01-13T21:12:18.198Z,3.08
2023-01-13T21:15:03.813Z,3.10
2023-01-13T21:17:49.337Z,3.20
2023-01-13T21:20:16.250Z,3.70
2023-01-13T21:22:47.577Z,3.78
2023-01-13T21:25:15.820Z,3.03
2023-01-13T21:27:44.115Z,3.70
2023-01-13T21:30:15.271Z,3.25
2023-01-13T21:32:43.607Z,2.77
2023-01-13T21:35:10.582Z,3.67
2023-01-13T21:37:38.550Z,3.20
2023-01-13T21:40:07.356Z,3.20
2023-01-13T21:42:52.286Z,2.92
2023-01-13T21:45:37.727Z,3.13
2023-01-13T21:48:04.590Z,3.22
2023-01-13T21:50:31.207Z,2.47
2023-01-13T21:52:58.553Z,2.78
2023-01-13T21:55:28.870Z,2.72
2023-01-13T21:58:13.124Z,3.42
2023-01-13T22:00:41.406Z,3.03
2023-01-13T22:03:09.054Z,3.05
2023-01-13T22:05:36.369Z,2.97
2023-01-13T22:08:03.363Z,2.97
2023-01-13T22:10:30.828Z,3.22
2023-01-13T22:13:00.289Z,3.90
2023-01-13T22:15:29.349Z,3.88
2023-01-13T22:17:56.439Z,3.35
2023-01-13T22:20:23.388Z,3.42
2023-01-13T22:22:50.239Z,2.45
2023-01-13T22:25:20.017Z,3.42
2023-01-13T22:27:48.359Z,3.35
2023-01-13T22:30:21.871Z,3.63
2023-01-13T22:32:48.581Z,3.28
2023-01-13T22:35:16.276Z,3.60
2023-01-13T22:37:43.245Z,3.55
2023-01-13T22:40:12.091Z,4.03
2023-01-13T22:42:39.631Z,2.90
2023-01-13T22:45:14.999Z,3.85
2023-01-13T22:47:41.759Z,3.85
2023-01-13T22:50:09.307Z,3.53
2023-01-13T22:52:36.134Z,3.05
2023-01-13T22:55:02.730Z,3.60
2023-01-13T22:57:36.517Z,3.13
2023-01-13T23:00:10.076Z,3.38
2023-01-13T23:02:38.150Z,3.45
2023-01-13T23:05:04.990Z,3.83
2023-01-13T23:07:31.531Z,3.55
2023-01-13T23:09:58.197Z,3.35
2023-01-13T23:12:24.781Z,3.53
2023-01-13T23:14:51.328Z,3.28
2023-01-13T23:17:18.546Z,3.67
2023-01-13T23:19:45.282Z,3.35
2023-01-13T23:22:13.127Z,3.72
2023-01-13T23:24:39.764Z,3.28
2023-01-13T23:27:06.375Z,3.45
2023-01-13T23:29:32.944Z,3.22
2023-01-13T23:31:59.645Z,3.65
2023-01-13T23:34:26.339Z,3.28
2023-01-13T23:36:52.927Z,3.08
2023-01-13T23:39:19.543Z,3.30
2023-01-13T23:41:46.096Z,3.30
2023-01-13T23:44:12.679Z,2.92
2023-01-13T23:46:39.291Z,3.40
2023-01-13T23:49:05.927Z,2.80
2023-01-13T23:51:32.591Z,4.03
2023-01-13T23:53:59.766Z,3.30
2023-01-13T23:56:29.726Z,3.38
2023-01-13T23:58:57.181Z,3.10
